createdAt,value
2018-04-26T17:39:26.608Z,41.00
2018-04-26T17:41:53.007Z,40.10
2018-04-26T17:44:19.502Z,40.30
2018-04-26T17:49:41.654Z,40.30
2018-04-26T17:52:09.641Z,40.30
2018-04-26T17:54:36.914Z,39.70
2018-04-26T17:57:04.094Z,40.10
2018-04-26T17:59:30.581Z,40.10
2018-04-26T18:01:57.816Z,40.80
2018-04-26T18:04:24.241Z,40.70
2018-04-26T18:06:51.449Z,40.90
2018-04-26T18:09:17.933Z,40.90
2018-04-26T18:11:44.369Z,41.20
2018-04-26T18:14:11.724Z,41.90
2018-04-26T18:16:38.183Z,41.20
2018-04-26T18:19:04.602Z,41.80
2018-04-26T18:21:31.808Z,41.40
2018-04-26T18:23:58.243Z,41.40
2018-04-26T18:26:24.688Z,41.70
2018-04-26T18:28:51.166Z,41.90
2018-04-26T18:31:18.339Z,42.50
2018-04-26T18:33:44.872Z,42.50
2018-04-26T18:36:11.302Z,42.80
2018-04-26T18:38:37.769Z,43.20
2018-04-26T18:41:04.976Z,44.10
2018-04-26T18:43:31.445Z,44.00
2018-04-26T18:45:57.921Z,43.90
2018-04-26T18:48:25.059Z,44.10
2018-04-26T18:50:51.506Z,44.00
2018-04-26T18:53:18.689Z,44.40
2018-04-26T18:55:45.119Z,44.40
2018-04-26T18:58:11.582Z,44.30
2018-04-26T19:00:38.181Z,44.60
2018-04-26T19:03:04.763Z,44.90
2018-04-26T19:05:31.309Z,45.20
2018-04-26T19:07:57.877Z,45.40
2018-04-26T19:10:24.369Z,45.40
2018-04-26T19:12:50.793Z,46.30
2018-04-26T19:15:17.240Z,45.70
2018-04-26T19:17:43.673Z,45.80
2018-04-26T19:20:10.101Z,45.90
2018-04-26T19:22:36.506Z,45.70
2018-04-26T19:25:02.974Z,46.10
2018-04-26T19:27:29.425Z,46.20
2018-04-26T19:29:55.799Z,46.10
2018-04-26T19:32:22.228Z,46.40
2018-04-26T19:34:48.701Z,46.50
2018-04-26T19:37:15.135Z,46.40
2018-04-26T19:39:41.774Z,46.60
2018-04-26T19:42:09.105Z,46.90
2018-04-26T19:44:35.531Z,46.90
2018-04-26T19:47:01.925Z,46.70
2018-04-26T19:49:29.184Z,46.10
2018-04-26T19:51:55.589Z,46.00
2018-04-26T19:54:22.054Z,46.10
2018-04-26T19:56:49.253Z,46.40
2018-04-26T19:59:15.905Z,46.30
2018-04-26T20:01:42.316Z,46.70
2018-04-26T20:04:08.779Z,46.90
2018-04-26T20:06:35.213Z,47.10
2018-04-26T20:09:01.914Z,47.20
2018-04-26T20:11:28.414Z,47.60
2018-04-26T20:13:54.838Z,47.50
2018-04-26T20:16:21.992Z,48.60
2018-04-26T20:18:49.324Z,48.90
2018-04-26T20:21:16.555Z,49.00
2018-04-26T20:23:42.975Z,49.00
2018-04-26T20:26:09.448Z,49.00
2018-04-26T20:28:35.890Z,49.40
2018-04-26T20:31:02.431Z,49.60
2018-04-26T20:33:29.679Z,50.10
2018-04-26T20:35:57.053Z,50.20
2018-04-26T20:38:24.219Z,50.40
2018-04-26T20:40:50.714Z,50.40
2018-04-26T20:43:17.892Z,50.20
2018-04-26T20:45:45.054Z,50.80
2018-04-26T20:48:12.532Z,50.70
2018-04-26T20:50:38.962Z,50.40
2018-04-26T20:53:05.473Z,50.40
2018-04-26T20:55:32.025Z,50.30
2018-04-26T20:57:58.485Z,50.60
2018-04-26T21:00:25.051Z,50.40
2018-04-26T21:02:51.660Z,50.70
2018-04-26T21:05:18.238Z,50.70
2018-04-26T21:07:44.855Z,51.50
2018-04-26T21:10:11.614Z,51.80
2018-04-26T21:12:38.163Z,52.40
2018-04-26T21:15:04.757Z,52.60
2018-04-26T21:17:31.312Z,52.80
2018-04-26T21:19:57.947Z,53.00
2018-04-26T21:22:25.195Z,53.00
2018-04-26T21:24:51.808Z,52.90
2018-04-26T21:27:18.660Z,52.90
2018-04-26T21:29:45.227Z,53.30
2018-04-26T21:32:11.857Z,53.30
2018-04-26T21:34:38.481Z,53.60
2018-04-26T21:37:05.061Z,53.60
2018-04-26T21:39:31.608Z,53.80
2018-04-26T21:41:58.166Z,53.80
2018-04-26T21:44:24.683Z,53.80
2018-04-26T21:46:51.252Z,54.00
2018-04-26T21:49:18.404Z,54.70
2018-04-26T21:51:51.053Z,54.70
2018-04-26T21:54:29.919Z,54.50
2018-04-26T21:57:08.442Z,54.50
2018-04-26T21:59:47.109Z,54.50
2018-04-26T22:02:22.238Z,54.60
2018-04-26T22:04:55.726Z,54.40
2018-04-26T22:07:22.268Z,54.20
2018-04-26T22:09:48.773Z,54.80
2018-04-26T22:12:15.519Z,55.20
2018-04-26T22:14:42.762Z,55.00
2018-04-26T22:17:09.398Z,54.90
2018-04-26T22:19:35.892Z,54.70
2018-04-26T22:22:02.442Z,55.30
2018-04-26T22:24:29.731Z,56.00
2018-04-26T22:26:56.270Z,55.90
2018-04-26T22:29:22.912Z,56.50
2018-04-26T22:31:49.445Z,55.90
2018-04-26T22:34:16.068Z,56.10
2018-04-26T22:36:42.678Z,56.30
2018-04-26T22:39:09.295Z,56.80
2018-04-26T22:41:35.896Z,57.00
2018-04-26T22:44:02.413Z,57.30
2018-04-26T22:46:28.962Z,58.00
2018-04-26T22:48:55.561Z,58.30
2018-04-26T22:51:21.991Z,58.70
2018-04-26T22:53:48.434Z,59.10
2018-04-26T22:56:14.885Z,59.80
2018-04-26T22:58:41.276Z,60.20
2018-04-26T23:01:07.853Z,60.90
2018-04-26T23:03:34.315Z,61.10
2018-04-26T23:06:00.715Z,62.00
2018-04-26T23:08:27.875Z,63.20
2018-04-26T23:10:54.284Z,63.20
2018-04-26T23:13:20.710Z,63.60
2018-04-26T23:15:47.115Z,64.20
2018-04-26T23:18:13.704Z,65.20
2018-04-26T23:20:40.090Z,66.10
2018-04-26T23:23:06.497Z,67.30
2018-04-26T23:25:33.721Z,68.80
2018-04-26T23:28:00.093Z,68.80
2018-04-26T23:30:26.492Z,69.40
2018-04-26T23:32:52.889Z,70.50
2018-04-26T23:35:19.330Z,71.40
2018-04-26T23:37:45.734Z,72.70
2018-04-26T23:40:12.208Z,73.70
2018-04-26T23:42:38.606Z,74.50
2018-04-26T23:45:05.030Z,75.40
2018-04-26T23:47:31.458Z,76.10
2018-04-26T23:49:57.941Z,76.40
2018-04-26T23:52:24.285Z,77.60
2018-04-26T23:54:51.565Z,81.50
2018-04-26T23:57:18.019Z,81.50
2018-04-26T23:59:44.431Z,82.90
